createdAt,value
2018-07-04T00:04:08.783Z,11.38
2018-07-04T00:09:24.874Z,10.25
2018-07-04T00:14:40.558Z,12.37
2018-07-04T00:19:56.074Z,9.55
2018-07-04T00:25:12.065Z,10.20
2018-07-04T00:30:27.844Z,9.88
2018-07-04T00:35:43.538Z,9.60
2018-07-04T00:40:58.979Z,10.30
2018-07-04T00:46:14.629Z,8.85
2018-07-04T00:51:30.315Z,9.25
2018-07-04T00:56:45.886Z,9.00
2018-07-04T01:02:01.359Z,10.58
2018-07-04T01:07:17.077Z,7.12
2018-07-04T01:12:32.694Z,10.85
2018-07-04T01:17:48.570Z,9.80
2018-07-04T01:23:04.470Z,10.63
2018-07-04T01:28:20.223Z,11.90
2018-07-04T01:33:36.050Z,7.75
2018-07-04T01:38:51.512Z,11.25
2018-07-04T01:44:07.224Z,8.98
2018-07-04T01:49:22.821Z,10.55
2018-07-04T01:54:38.516Z,10.15
2018-07-04T01:59:54.301Z,9.73
2018-07-04T02:05:10.002Z,9.33
2018-07-04T02:10:25.602Z,10.15
2018-07-04T02:15:41.269Z,9.05
2018-07-04T02:20:57.071Z,7.35
2018-07-04T02:26:12.654Z,7.10
2018-07-04T02:31:28.364Z,8.23
2018-07-04T02:36:44.261Z,8.73
2018-07-04T02:42:00.179Z,13.35
2018-07-04T02:47:21.126Z,9.93
2018-07-04T02:52:36.869Z,9.25
2018-07-04T02:57:52.567Z,7.12
2018-07-04T03:03:07.987Z,9.45
2018-07-04T03:08:23.952Z,9.90
2018-07-04T03:13:39.762Z,9.33
2018-07-04T03:18:55.376Z,14.33
2018-07-04T03:24:11.143Z,10.15
2018-07-04T03:29:26.838Z,12.28
2018-07-04T03:34:36.297Z,14.07
2018-07-04T03:39:52.108Z,14.23
2018-07-04T03:45:08.117Z,14.83
2018-07-04T03:50:23.652Z,11.20
2018-07-04T03:55:39.322Z,11.60
2018-07-04T04:00:55.302Z,12.68
2018-07-04T04:06:10.944Z,12.00
2018-07-04T04:11:27.448Z,13.10
2018-07-04T04:16:43.240Z,10.20
2018-07-04T04:21:58.848Z,11.18
2018-07-04T04:27:14.727Z,10.60
2018-07-04T04:32:30.451Z,11.28
2018-07-04T04:37:45.896Z,10.55
2018-07-04T04:43:01.809Z,11.12
2018-07-04T04:48:17.503Z,9.98
2018-07-04T04:53:33.498Z,11.48
2018-07-04T04:58:48.972Z,11.45
2018-07-04T05:04:04.686Z,12.50
2018-07-04T05:09:20.569Z,11.30
2018-07-04T05:14:36.288Z,12.43
2018-07-04T05:19:45.830Z,9.68
2018-07-04T05:25:01.515Z,13.40
2018-07-04T05:30:17.319Z,9.63
2018-07-04T05:35:33.116Z,10.53
2018-07-04T05:40:42.545Z,12.68
2018-07-04T05:45:58.572Z,9.28
2018-07-04T05:51:14.350Z,11.10
2018-07-04T05:56:30.051Z,9.08
2018-07-04T06:01:45.962Z,11.88
2018-07-04T06:07:01.741Z,8.38
2018-07-04T06:12:17.621Z,10.70
2018-07-04T06:17:33.241Z,10.65
2018-07-04T06:22:49.115Z,10.55
2018-07-04T06:28:04.806Z,9.20
2018-07-04T06:33:20.483Z,8.60
2018-07-04T06:38:23.928Z,12.47
2018-07-04T06:43:28.361Z,13.95
2018-07-04T06:48:31.558Z,12.03
2018-07-04T06:53:37.001Z,11.85
2018-07-04T06:58:40.246Z,10.18
2018-07-04T07:03:56.026Z,9.35
2018-07-04T07:09:12.042Z,10.20
2018-07-04T07:14:28.315Z,12.30
2018-07-04T07:19:43.922Z,9.58
2018-07-04T07:24:59.927Z,10.75
2018-07-04T07:30:15.820Z,10.23
2018-07-04T07:35:25.457Z,9.20
2018-07-04T07:40:41.026Z,7.45
2018-07-04T07:45:56.638Z,9.20
2018-07-04T07:51:12.862Z,6.55
2018-07-04T07:56:28.510Z,9.23
2018-07-04T08:01:44.138Z,6.80
2018-07-04T08:06:59.925Z,11.28
2018-07-04T08:12:15.304Z,7.03
2018-07-04T08:17:30.791Z,9.83
2018-07-04T08:22:46.596Z,7.33
2018-07-04T08:28:02.904Z,10.50
2018-07-04T08:33:18.568Z,8.30
2018-07-04T08:38:34.270Z,7.78
2018-07-04T08:43:49.893Z,7.20
2018-07-04T08:49:05.881Z,9.70
2018-07-04T08:54:21.670Z,8.45
2018-07-04T08:59:37.263Z,9.05
2018-07-04T09:04:53.055Z,10.63
2018-07-04T09:10:08.876Z,8.18
2018-07-04T09:15:24.441Z,7.22
2018-07-04T09:20:40.356Z,9.60
2018-07-04T09:25:56.221Z,8.78
2018-07-04T09:31:12.040Z,6.10
2018-07-04T09:36:27.695Z,7.00
2018-07-04T09:41:43.616Z,8.03
2018-07-04T09:46:59.258Z,7.28
2018-07-04T09:52:15.084Z,6.72
2018-07-04T09:57:30.885Z,10.05
2018-07-04T10:02:46.802Z,9.98
2018-07-04T10:08:02.509Z,8.55
2018-07-04T10:13:18.181Z,8.33
2018-07-04T10:18:33.866Z,8.53
2018-07-04T10:23:49.646Z,8.40
2018-07-04T10:29:05.355Z,8.33
2018-07-04T10:34:21.206Z,6.35
2018-07-04T10:39:37.432Z,6.37
2018-07-04T10:44:53.253Z,7.53
2018-07-04T10:50:10.681Z,7.47
2018-07-04T10:55:26.207Z,8.20
2018-07-04T11:00:41.900Z,5.35
2018-07-04T11:05:57.871Z,6.45
2018-07-04T11:11:07.765Z,4.83
2018-07-04T11:16:23.231Z,5.92
2018-07-04T11:21:38.891Z,6.03
2018-07-04T11:26:54.374Z,4.40
2018-07-04T11:32:10.403Z,5.40
2018-07-04T11:37:26.183Z,5.25
2018-07-04T11:42:36.012Z,4.90
2018-07-04T11:47:39.264Z,5.25
2018-07-04T11:52:42.430Z,4.60
2018-07-04T11:57:45.866Z,5.80
2018-07-04T12:02:48.979Z,4.40
2018-07-04T12:07:52.260Z,4.17
2018-07-04T12:12:55.465Z,3.75
2018-07-04T12:17:58.981Z,4.67
2018-07-04T12:23:02.249Z,5.30
2018-07-04T12:28:05.459Z,4.85
2018-07-04T12:33:08.737Z,5.00
2018-07-04T12:38:12.077Z,6.53
2018-07-04T12:43:15.217Z,6.03
2018-07-04T12:48:18.578Z,6.90
2018-07-04T12:53:21.874Z,7.40
2018-07-04T12:58:37.431Z,4.33
2018-07-04T13:03:52.926Z,5.40
2018-07-04T13:09:08.628Z,4.80
2018-07-04T13:14:24.206Z,4.10
2018-07-04T13:19:39.753Z,5.50
2018-07-04T13:24:55.286Z,5.17
2018-07-04T13:30:11.202Z,5.97
2018-07-04T13:35:26.809Z,3.22
2018-07-04T13:40:42.687Z,5.00
2018-07-04T13:45:58.600Z,3.65
2018-07-04T13:51:14.389Z,3.55
2018-07-04T13:56:23.840Z,3.05
2018-07-04T14:01:39.532Z,1.72
2018-07-04T14:06:55.286Z,2.37
2018-07-04T14:12:10.879Z,6.28
2018-07-04T14:17:26.714Z,2.35
2018-07-04T14:22:42.612Z,2.45
2018-07-04T14:27:58.398Z,2.62
2018-07-04T14:33:14.223Z,2.55
2018-07-04T14:38:29.963Z,3.17
2018-07-04T14:43:45.661Z,7.05
2018-07-04T14:49:01.671Z,5.08
2018-07-04T14:54:18.591Z,7.40
2018-07-04T14:59:34.404Z,7.60
2018-07-04T15:04:50.304Z,4.85
2018-07-04T15:10:05.724Z,4.65
2018-07-04T15:15:21.454Z,3.98
2018-07-04T15:20:37.185Z,4.25
2018-07-04T15:25:52.665Z,2.80
2018-07-04T15:31:08.537Z,3.08
2018-07-04T15:36:24.642Z,4.37
2018-07-04T15:41:40.303Z,3.05
2018-07-04T15:46:55.842Z,6.10
2018-07-04T15:52:11.596Z,4.15
2018-07-04T15:57:27.417Z,2.90
2018-07-04T16:02:43.123Z,2.52
2018-07-04T16:07:58.878Z,2.58
2018-07-04T16:13:14.775Z,2.47
2018-07-04T16:18:30.793Z,3.58
2018-07-04T16:23:46.461Z,2.60
2018-07-04T16:29:02.489Z,2.33
2018-07-04T16:34:17.952Z,2.27
2018-07-04T16:39:34.787Z,2.08
2018-07-04T16:44:50.356Z,2.55
2018-07-04T16:50:06.569Z,2.65
2018-07-04T16:55:22.148Z,3.33
2018-07-04T17:00:37.993Z,4.85
2018-07-04T17:05:54.914Z,3.50
2018-07-04T17:11:10.476Z,4.78
2018-07-04T17:16:27.377Z,3.65
2018-07-04T17:21:42.973Z,2.90
2018-07-04T17:26:58.786Z,3.35
2018-07-04T17:32:14.686Z,7.08
2018-07-04T17:37:30.247Z,3.77
2018-07-04T17:42:45.876Z,3.47
2018-07-04T17:48:01.560Z,2.45
2018-07-04T17:53:17.252Z,3.30
2018-07-04T17:58:33.150Z,3.05
2018-07-04T18:03:48.857Z,2.52
2018-07-04T18:09:04.864Z,2.47
2018-07-04T18:14:20.670Z,3.12
2018-07-04T18:19:36.292Z,5.70
2018-07-04T18:24:51.781Z,3.05
2018-07-04T18:30:07.388Z,3.37
2018-07-04T18:35:23.208Z,2.58
2018-07-04T18:40:32.932Z,3.67
2018-07-04T18:45:48.228Z,2.50
2018-07-04T18:51:04.015Z,3.05
2018-07-04T18:56:19.746Z,3.92
2018-07-04T19:01:35.207Z,3.50
2018-07-04T19:06:51.621Z,4.42
2018-07-04T19:12:01.306Z,4.22
2018-07-04T19:17:16.758Z,3.75
2018-07-04T19:22:26.298Z,2.40
2018-07-04T19:27:42.135Z,3.20
2018-07-04T19:32:57.699Z,4.90
2018-07-04T19:38:13.384Z,4.05
2018-07-04T19:43:29.102Z,3.92
2018-07-04T19:48:44.723Z,4.65
2018-07-04T19:54:00.787Z,3.60
2018-07-04T19:59:16.458Z,3.95
2018-07-04T20:04:32.295Z,3.05
2018-07-04T20:09:47.945Z,3.12
2018-07-04T20:15:03.547Z,3.10
2018-07-04T20:20:19.934Z,2.52
2018-07-04T20:25:36.165Z,3.33
2018-07-04T20:30:45.705Z,3.10
2018-07-04T20:36:01.495Z,3.20
2018-07-04T20:41:17.293Z,3.70
2018-07-04T20:46:32.990Z,4.15
2018-07-04T20:51:48.763Z,5.15
2018-07-04T20:57:04.608Z,6.47
2018-07-04T21:02:20.499Z,4.80
2018-07-04T21:07:36.289Z,4.80
2018-07-04T21:12:52.159Z,5.28
2018-07-04T21:18:07.953Z,4.97
2018-07-04T21:23:25.038Z,5.47
2018-07-04T21:28:40.472Z,5.90
2018-07-04T21:33:56.364Z,6.87
2018-07-04T21:39:12.156Z,5.95
2018-07-04T21:44:28.075Z,5.60
2018-07-04T21:49:43.674Z,6.00
2018-07-04T21:54:59.651Z,7.42
2018-07-04T22:00:19.290Z,5.35
2018-07-04T22:05:35.234Z,6.55
2018-07-04T22:10:51.025Z,6.37
2018-07-04T22:16:06.520Z,8.45
2018-07-04T22:21:16.106Z,6.00
2018-07-04T22:26:31.854Z,6.72
2018-07-04T22:31:47.657Z,6.08
2018-07-04T22:37:03.184Z,6.58
2018-07-04T22:42:19.141Z,6.40
2018-07-04T22:47:34.810Z,6.37
2018-07-04T22:52:50.634Z,5.50
2018-07-04T22:58:06.188Z,6.22
2018-07-04T23:03:21.783Z,6.85
2018-07-04T23:08:37.393Z,4.70
2018-07-04T23:13:47.096Z,5.80
2018-07-04T23:19:02.736Z,5.28
2018-07-04T23:24:18.538Z,5.95
2018-07-04T23:29:34.329Z,6.67
2018-07-04T23:34:49.935Z,6.37
2018-07-04T23:40:05.720Z,6.28
2018-07-04T23:45:21.226Z,6.78
2018-07-04T23:50:36.796Z,7.87
2018-07-04T23:55:52.817Z,6.25
